sensor_id;sensor_type;location;lat;lon;timestamp;noise_LAeq;noise_LA_min;noise_LA_max;noise_LA01;noise_LA95
48148;Laerm;29352;48.708;9.290;2023-12-29T00:00:43;54.54;50.33;55.77;;
48148;Laerm;29352;48.708;9.290;2023-12-29T00:03:08;54.41;47.32;55.83;;
48148;Laerm;29352;48.708;9.290;2023-12-29T00:05:35;54.59;50.71;55.69;;
48148;Laerm;29352;48.708;9.290;2023-12-29T00:08:01;54.59;51.06;55.80;;
48148;Laerm;29352;48.708;9.290;2023-12-29T00:10:27;54.60;51.46;55.75;;
48148;Laerm;29352;48.708;9.290;2023-12-29T00:12:52;54.29;46.45;55.80;;
48148;Laerm;29352;48.708;9.290;2023-12-29T00:15:18;54.12;49.21;55.69;;
48148;Laerm;29352;48.708;9.290;2023-12-29T00:17:44;53.95;47.12;55.75;;
48148;Laerm;29352;48.708;9.290;2023-12-29T00:20:12;53.85;51.14;55.33;;
48148;Laerm;29352;48.708;9.290;2023-12-29T00:22:38;53.75;50.33;55.42;;
48148;Laerm;29352;48.708;9.290;2023-12-29T00:25:04;53.71;49.21;55.48;;
48148;Laerm;29352;48.708;9.290;2023-12-29T00:27:31;53.79;48.95;55.42;;
48148;Laerm;29352;48.708;9.290;2023-12-29T00:29:56;53.83;49.21;55.36;;
48148;Laerm;29352;48.708;9.290;2023-12-29T00:32:22;53.98;50.98;55.60;;
48148;Laerm;29352;48.708;9.290;2023-12-29T00:34:47;54.09;50.23;55.72;;
48148;Laerm;29352;48.708;9.290;2023-12-29T00:37:12;53.59;50.71;55.75;;
48148;Laerm;29352;48.708;9.290;2023-12-29T00:39:38;53.91;50.80;55.45;;
48148;Laerm;29352;48.708;9.290;2023-12-29T00:42:06;53.88;50.80;55.45;;
48148;Laerm;29352;48.708;9.290;2023-12-29T00:44:32;53.92;50.43;55.60;;
48148;Laerm;29352;48.708;9.290;2023-12-29T00:46:59;53.69;50.23;55.39;;
48148;Laerm;29352;48.708;9.290;2023-12-29T00:49:25;53.74;49.70;55.33;;
48148;Laerm;29352;48.708;9.290;2023-12-29T00:51:50;53.39;50.13;55.04;;
48148;Laerm;29352;48.708;9.290;2023-12-29T00:54:17;53.34;49.89;55.20;;
48148;Laerm;29352;48.708;9.290;2023-12-29T00:56:49;54.14;50.71;55.36;;
48148;Laerm;29352;48.708;9.290;2023-12-29T00:59:14;54.22;48.81;55.42;;
48148;Laerm;29352;48.708;9.290;2023-12-29T01:01:40;54.06;51.06;55.39;;
48148;Laerm;29352;48.708;9.290;2023-12-29T01:04:05;53.42;46.56;55.20;;
48148;Laerm;29352;48.708;9.290;2023-12-29T01:06:31;52.78;48.05;55.14;;
48148;Laerm;29352;48.708;9.290;2023-12-29T01:08:56;52.95;45.66;55.20;;
48148;Laerm;29352;48.708;9.290;2023-12-29T01:11:22;53.12;49.92;54.94;;
48148;Laerm;29352;48.708;9.290;2023-12-29T01:13:47;53.06;42.35;54.87;;
48148;Laerm;29352;48.708;9.290;2023-12-29T01:16:13;53.14;48.95;55.42;;
48148;Laerm;29352;48.708;9.290;2023-12-29T01:18:39;53.21;50.23;55.07;;
48148;Laerm;29352;48.708;9.290;2023-12-29T01:21:06;53.14;49.21;54.90;;
48148;Laerm;29352;48.708;9.290;2023-12-29T01:23:32;53.09;48.81;55.04;;
48148;Laerm;29352;48.708;9.290;2023-12-29T01:25:58;53.31;49.34;54.95;;
48148;Laerm;29352;48.708;9.290;2023-12-29T01:28:24;53.51;49.34;55.27;;
48148;Laerm;29352;48.708;9.290;2023-12-29T01:30:52;53.30;45.59;55.11;;
48148;Laerm;29352;48.708;9.290;2023-12-29T01:33:19;53.76;46.69;55.39;;
48148;Laerm;29352;48.708;9.290;2023-12-29T01:35:47;53.62;48.81;55.20;;
48148;Laerm;29352;48.708;9.290;2023-12-29T01:38:12;53.11;49.08;55.45;;
48148;Laerm;29352;48.708;9.290;2023-12-29T01:40:46;53.70;49.46;55.27;;
48148;Laerm;29352;48.708;9.290;2023-12-29T01:43:13;53.83;46.91;55.39;;
48148;Laerm;29352;48.708;9.290;2023-12-29T01:45:39;53.65;49.08;55.11;;
48148;Laerm;29352;48.708;9.290;2023-12-29T01:48:05;53.50;42.93;55.04;;
48148;Laerm;29352;48.708;9.290;2023-12-29T01:50:32;53.49;43.44;55.33;;
48148;Laerm;29352;48.708;9.290;2023-12-29T01:53:01;53.50;50.33;55.11;;
48148;Laerm;29352;48.708;9.290;2023-12-29T01:55:29;53.40;48.37;54.90;;
48148;Laerm;29352;48.708;9.290;2023-12-29T01:57:56;53.49;48.67;55.11;;
48148;Laerm;29352;48.708;9.290;2023-12-29T02:00:22;53.32;49.70;55.14;;
48148;Laerm;29352;48.708;9.290;2023-12-29T02:02:49;53.87;50.13;55.30;;
48148;Laerm;29352;48.708;9.290;2023-12-29T02:05:15;53.71;50.98;55.17;;
48148;Laerm;29352;48.708;9.290;2023-12-29T02:07:43;53.66;50.33;55.20;;
48148;Laerm;29352;48.708;9.290;2023-12-29T02:10:09;53.57;49.58;55.01;;
48148;Laerm;29352;48.708;9.290;2023-12-29T02:12:39;52.73;48.37;54.97;;
48148;Laerm;29352;48.708;9.290;2023-12-29T02:15:07;52.89;48.52;54.90;;
48148;Laerm;29352;48.708;9.290;2023-12-29T02:17:47;52.92;47.88;54.80;;
48148;Laerm;29352;48.708;9.290;2023-12-29T02:20:14;53.28;50.03;54.97;;
48148;Laerm;29352;48.708;9.290;2023-12-29T02:22:40;53.08;49.08;54.83;;
48148;Laerm;29352;48.708;9.290;2023-12-29T02:25:06;53.19;48.67;55.11;;
48148;Laerm;29352;48.708;9.290;2023-12-29T02:27:54;53.28;48.81;55.20;;
48148;Laerm;29352;48.708;9.290;2023-12-29T02:30:41;52.92;49.08;54.83;;
48148;Laerm;29352;48.708;9.290;2023-12-29T02:33:15;53.37;48.52;54.94;;
48148;Laerm;29352;48.708;9.290;2023-12-29T02:35:45;53.02;48.52;55.11;;
48148;Laerm;29352;48.708;9.290;2023-12-29T02:38:13;52.70;47.52;54.62;;
48148;Laerm;29352;48.708;9.290;2023-12-29T02:40:40;52.94;49.08;54.73;;
48148;Laerm;29352;48.708;9.290;2023-12-29T02:43:08;52.78;48.52;54.58;;
48148;Laerm;29352;48.708;9.290;2023-12-29T02:45:35;52.81;48.67;55.04;;
48148;Laerm;29352;48.708;9.290;2023-12-29T02:48:00;53.12;48.81;54.87;;
48148;Laerm;29352;48.708;9.290;2023-12-29T02:50:27;53.15;48.37;54.94;;
48148;Laerm;29352;48.708;9.290;2023-12-29T02:52:52;52.93;48.05;54.90;;
48148;Laerm;29352;48.708;9.290;2023-12-29T02:55:18;52.35;48.37;54.43;;
48148;Laerm;29352;48.708;9.290;2023-12-29T02:57:44;52.67;49.21;54.83;;
48148;Laerm;29352;48.708;9.290;2023-12-29T03:00:10;53.60;49.46;55.07;;
48148;Laerm;29352;48.708;9.290;2023-12-29T03:02:37;53.51;49.21;55.11;;
48148;Laerm;29352;48.708;9.290;2023-12-29T03:05:03;53.46;50.23;55.14;;
48148;Laerm;29352;48.708;9.290;2023-12-29T03:07:29;53.70;49.34;55.42;;
48148;Laerm;29352;48.708;9.290;2023-12-29T03:09:54;53.73;50.53;55.11;;
48148;Laerm;29352;48.708;9.290;2023-12-29T03:12:22;53.81;49.70;55.30;;
48148;Laerm;29352;48.708;9.290;2023-12-29T03:14:47;53.86;50.03;55.66;;
48148;Laerm;29352;48.708;9.290;2023-12-29T03:17:14;53.83;50.43;55.54;;
48148;Laerm;29352;48.708;9.290;2023-12-29T03:19:39;54.04;50.23;55.42;;
48148;Laerm;29352;48.708;9.290;2023-12-29T03:22:05;53.85;49.58;55.42;;
48148;Laerm;29352;48.708;9.290;2023-12-29T03:24:31;53.92;50.80;55.39;;
48148;Laerm;29352;48.708;9.290;2023-12-29T03:26:56;53.84;50.62;55.36;;
48148;Laerm;29352;48.708;9.290;2023-12-29T03:29:22;54.19;49.92;55.66;;
48148;Laerm;29352;48.708;9.290;2023-12-29T03:31:47;54.27;50.23;55.51;;
48148;Laerm;29352;48.708;9.290;2023-12-29T03:34:13;54.22;47.88;55.60;;
48148;Laerm;29352;48.708;9.290;2023-12-29T03:36:39;54.17;50.98;55.51;;
48148;Laerm;29352;48.708;9.290;2023-12-29T03:39:04;54.23;50.53;55.60;;
48148;Laerm;29352;48.708;9.290;2023-12-29T03:41:31;54.35;49.21;55.63;;
48148;Laerm;29352;48.708;9.290;2023-12-29T03:43:58;54.29;51.22;55.45;;
48148;Laerm;29352;48.708;9.290;2023-12-29T03:46:26;54.28;47.70;55.63;;
48148;Laerm;29352;48.708;9.290;2023-12-29T03:48:51;54.41;49.70;55.72;;
48148;Laerm;29352;48.708;9.290;2023-12-29T03:51:18;54.58;51.68;55.72;;
48148;Laerm;29352;48.708;9.290;2023-12-29T03:53:45;54.51;52.03;55.77;;
48148;Laerm;29352;48.708;9.290;2023-12-29T03:56:16;53.95;51.38;55.80;;
48148;Laerm;29352;48.708;9.290;2023-12-29T03:58:46;53.54;48.21;55.45;;
48148;Laerm;29352;48.708;9.290;2023-12-29T04:01:14;53.56;45.94;55.77;;
48148;Laerm;29352;48.708;9.290;2023-12-29T04:03:41;53.77;49.58;55.69;;
48148;Laerm;29352;48.708;9.290;2023-12-29T04:06:07;53.86;49.46;55.51;;
48148;Laerm;29352;48.708;9.290;2023-12-29T04:08:34;54.05;46.69;55.86;;
48148;Laerm;29352;48.708;9.290;2023-12-29T04:11:01;53.66;48.37;55.66;;
48148;Laerm;29352;48.708;9.290;2023-12-29T04:13:28;53.92;45.94;55.94;;
48148;Laerm;29352;48.708;9.290;2023-12-29T04:15:53;52.93;45.36;55.77;;
48148;Laerm;29352;48.708;9.290;2023-12-29T04:18:23;53.46;47.32;55.78;;
48148;Laerm;29352;48.708;9.290;2023-12-29T04:20:50;54.51;47.70;55.89;;
48148;Laerm;29352;48.708;9.290;2023-12-29T04:23:16;54.65;51.38;55.80;;
48148;Laerm;29352;48.708;9.290;2023-12-29T04:25:42;54.51;52.35;55.89;;
48148;Laerm;29352;48.708;9.290;2023-12-29T04:28:09;54.72;52.41;55.86;;
48148;Laerm;29352;48.708;9.290;2023-12-29T04:30:35;54.70;49.21;56.08;;
48148;Laerm;29352;48.708;9.290;2023-12-29T04:33:00;54.77;51.38;55.97;;
48148;Laerm;29352;48.708;9.290;2023-12-29T04:35:26;54.81;53.09;55.93;;
48148;Laerm;29352;48.708;9.290;2023-12-29T04:37:51;54.86;52.65;56.15;;
48148;Laerm;29352;48.708;9.290;2023-12-29T04:40:18;54.95;53.29;56.15;;
48148;Laerm;29352;48.708;9.290;2023-12-29T04:42:43;54.96;52.98;55.99;;
48148;Laerm;29352;48.708;9.290;2023-12-29T04:45:09;54.95;53.04;56.13;;
48148;Laerm;29352;48.708;9.290;2023-12-29T04:47:36;54.96;53.44;56.15;;
48148;Laerm;29352;48.708;9.290;2023-12-29T04:50:02;54.98;53.63;56.10;;
48148;Laerm;29352;48.708;9.290;2023-12-29T04:52:27;55.02;53.90;56.10;;
48148;Laerm;29352;48.708;9.290;2023-12-29T04:54:53;54.99;53.44;56.05;;
48148;Laerm;29352;48.708;9.290;2023-12-29T04:57:19;54.87;53.51;56.15;;
48148;Laerm;29352;48.708;9.290;2023-12-29T04:59:45;54.93;52.93;55.97;;
48148;Laerm;29352;48.708;9.290;2023-12-29T05:02:11;54.80;46.91;56.13;;
48148;Laerm;29352;48.708;9.290;2023-12-29T05:04:36;54.63;50.43;55.96;;
48148;Laerm;29352;48.708;9.290;2023-12-29T05:07:07;54.84;50.43;56.07;;
48148;Laerm;29352;48.708;9.290;2023-12-29T05:09:32;54.99;52.35;56.29;;
48148;Laerm;29352;48.708;9.290;2023-12-29T05:11:58;54.90;49.70;56.05;;
48148;Laerm;29352;48.708;9.290;2023-12-29T05:14:23;55.04;53.49;56.40;;
48148;Laerm;29352;48.708;9.290;2023-12-29T05:16:49;55.05;52.76;56.35;;
48148;Laerm;29352;48.708;9.290;2023-12-29T05:19:14;55.08;49.70;56.30;;
48148;Laerm;29352;48.708;9.290;2023-12-29T05:21:40;55.14;53.85;56.30;;
48148;Laerm;29352;48.708;9.290;2023-12-29T05:24:05;55.10;53.28;56.20;;
48148;Laerm;29352;48.708;9.290;2023-12-29T05:26:31;55.10;51.89;56.35;;
48148;Laerm;29352;48.708;9.290;2023-12-29T05:28:57;55.10;53.72;56.38;;
48148;Laerm;29352;48.708;9.290;2023-12-29T05:31:23;55.08;51.46;56.15;;
48148;Laerm;29352;48.708;9.290;2023-12-29T05:33:48;55.03;51.82;56.07;;
48148;Laerm;29352;48.708;9.290;2023-12-29T05:36:14;55.07;49.81;56.15;;
48148;Laerm;29352;48.708;9.290;2023-12-29T05:38:40;55.12;53.99;56.13;;
48148;Laerm;29352;48.708;9.290;2023-12-29T05:41:07;55.07;51.06;56.10;;
48148;Laerm;29352;48.708;9.290;2023-12-29T05:43:33;55.16;53.24;56.38;;
48148;Laerm;29352;48.708;9.290;2023-12-29T05:46:01;55.15;51.48;56.20;;
48148;Laerm;29352;48.708;9.290;2023-12-29T05:48:27;55.15;50.13;56.25;;
48148;Laerm;29352;48.708;9.290;2023-12-29T05:50:53;55.12;49.68;56.30;;
48148;Laerm;29352;48.708;9.290;2023-12-29T05:53:19;55.15;53.09;56.28;;
48148;Laerm;29352;48.708;9.290;2023-12-29T05:55:45;55.20;53.99;56.25;;
48148;Laerm;29352;48.708;9.290;2023-12-29T05:58:11;55.18;52.82;56.43;;
48148;Laerm;29352;48.708;9.290;2023-12-29T06:00:38;55.09;43.90;56.15;;
48148;Laerm;29352;48.708;9.290;2023-12-29T06:03:06;55.19;49.08;56.30;;
48148;Laerm;29352;48.708;9.290;2023-12-29T06:05:32;55.21;53.04;56.23;;
48148;Laerm;29352;48.708;9.290;2023-12-29T06:07:59;55.20;51.14;56.59;;
48148;Laerm;29352;48.708;9.290;2023-12-29T06:10:25;55.19;53.72;56.40;;
48148;Laerm;29352;48.708;9.290;2023-12-29T06:12:51;55.19;50.98;56.30;;
48148;Laerm;29352;48.708;9.290;2023-12-29T06:15:17;55.15;48.05;56.40;;
48148;Laerm;29352;48.708;9.290;2023-12-29T06:17:42;55.13;48.21;56.55;;
48148;Laerm;29352;48.708;9.290;2023-12-29T06:20:09;55.19;52.29;56.23;;
48148;Laerm;29352;48.708;9.290;2023-12-29T06:22:41;55.21;50.33;56.33;;
48148;Laerm;29352;48.708;9.290;2023-12-29T06:25:11;55.24;54.07;56.30;;
48148;Laerm;29352;48.708;9.290;2023-12-29T06:27:37;55.23;54.11;56.50;;
48148;Laerm;29352;48.708;9.290;2023-12-29T06:30:10;55.23;48.95;56.40;;
48148;Laerm;29352;48.708;9.290;2023-12-29T06:32:38;55.25;54.23;56.48;;
48148;Laerm;29352;48.708;9.290;2023-12-29T06:35:05;55.29;50.33;56.43;;
48148;Laerm;29352;48.708;9.290;2023-12-29T06:37:32;55.29;46.91;56.62;;
48148;Laerm;29352;48.708;9.290;2023-12-29T06:39:58;55.41;52.22;56.97;;
48148;Laerm;29352;48.708;9.290;2023-12-29T06:42:25;55.38;51.30;57.08;;
48148;Laerm;29352;48.708;9.290;2023-12-29T06:44:52;55.67;51.46;57.44;;
48148;Laerm;29352;48.708;9.290;2023-12-29T06:47:17;55.81;52.59;57.34;;
48148;Laerm;29352;48.708;9.290;2023-12-29T06:49:43;55.92;52.71;57.77;;
48148;Laerm;29352;48.708;9.290;2023-12-29T06:52:10;56.04;46.20;57.96;;
48148;Laerm;29352;48.708;9.290;2023-12-29T06:54:36;56.07;52.03;57.95;;
48148;Laerm;29352;48.708;9.290;2023-12-29T06:57:02;56.12;52.76;57.90;;
48148;Laerm;29352;48.708;9.290;2023-12-29T06:59:28;56.15;53.09;57.91;;
48148;Laerm;29352;48.708;9.290;2023-12-29T07:01:53;56.01;54.19;57.79;;
48148;Laerm;29352;48.708;9.290;2023-12-29T07:04:20;55.86;54.43;57.46;;
48148;Laerm;29352;48.708;9.290;2023-12-29T07:06:45;55.78;53.58;57.40;;
48148;Laerm;29352;48.708;9.290;2023-12-29T07:09:11;55.69;53.86;57.26;;
48148;Laerm;29352;48.708;9.290;2023-12-29T07:11:37;55.52;54.19;57.22;;
48148;Laerm;29352;48.708;9.290;2023-12-29T07:14:03;55.55;54.23;57.06;;
48148;Laerm;29352;48.708;9.290;2023-12-29T07:16:29;55.48;54.07;56.78;;
48148;Laerm;29352;48.708;9.290;2023-12-29T07:18:54;55.46;54.31;56.82;;
48148;Laerm;29352;48.708;9.290;2023-12-29T07:21:20;55.61;53.24;57.50;;
48148;Laerm;29352;48.708;9.290;2023-12-29T07:23:46;55.58;52.93;57.36;;
48148;Laerm;29352;48.708;9.290;2023-12-29T07:26:12;55.53;54.11;57.18;;
48148;Laerm;29352;48.708;9.290;2023-12-29T07:28:37;55.51;52.53;57.06;;
48148;Laerm;29352;48.708;9.290;2023-12-29T07:31:03;55.40;53.29;56.82;;
48148;Laerm;29352;48.708;9.290;2023-12-29T07:33:30;55.35;49.70;56.48;;
48148;Laerm;29352;48.708;9.290;2023-12-29T07:35:56;55.36;53.81;56.64;;
48148;Laerm;29352;48.708;9.290;2023-12-29T07:38:23;55.33;53.63;56.45;;
48148;Laerm;29352;48.708;9.290;2023-12-29T07:40:49;55.32;52.53;56.36;;
48148;Laerm;29352;48.708;9.290;2023-12-29T07:43:15;55.30;52.71;56.52;;
48148;Laerm;29352;48.708;9.290;2023-12-29T07:45:41;55.08;48.05;56.50;;
48148;Laerm;29352;48.708;9.290;2023-12-29T07:48:08;54.96;50.98;56.33;;
48148;Laerm;29352;48.708;9.290;2023-12-29T07:50:34;55.28;54.07;56.59;;
48148;Laerm;29352;48.708;9.290;2023-12-29T07:52:59;55.26;53.19;56.35;;
48148;Laerm;29352;48.708;9.290;2023-12-29T07:55:32;55.25;44.69;56.28;;
48148;Laerm;29352;48.708;9.290;2023-12-29T07:57:57;55.05;49.81;56.45;;
48148;Laerm;29352;48.708;9.290;2023-12-29T08:00:23;55.20;46.91;56.35;;
48148;Laerm;29352;48.708;9.290;2023-12-29T08:02:49;55.23;53.49;56.33;;
48148;Laerm;29352;48.708;9.290;2023-12-29T08:05:15;55.00;51.53;56.33;;
48148;Laerm;29352;48.708;9.290;2023-12-29T08:07:42;55.26;53.90;56.33;;
48148;Laerm;29352;48.708;9.290;2023-12-29T08:10:09;55.16;40.89;56.28;;
48148;Laerm;29352;48.708;9.290;2023-12-29T08:12:35;55.17;48.37;56.57;;
48148;Laerm;29352;48.708;9.290;2023-12-29T08:15:04;55.13;46.91;56.48;;
48148;Laerm;29352;48.708;9.290;2023-12-29T08:17:29;55.24;52.16;56.38;;
48148;Laerm;29352;48.708;9.290;2023-12-29T08:19:57;55.01;15.00;56.33;;
48148;Laerm;29352;48.708;9.290;2023-12-29T08:22:23;55.08;15.00;56.52;;
48148;Laerm;29352;48.708;9.290;2023-12-29T08:24:50;55.21;47.32;56.55;;
48148;Laerm;29352;48.708;9.290;2023-12-29T08:27:23;55.21;49.08;56.40;;
48148;Laerm;29352;48.708;9.290;2023-12-29T08:29:52;55.26;54.07;56.40;;
48148;Laerm;29352;48.708;9.290;2023-12-29T08:32:19;55.04;51.06;56.23;;
48148;Laerm;29352;48.708;9.290;2023-12-29T08:34:44;55.11;50.62;56.35;;
48148;Laerm;29352;48.708;9.290;2023-12-29T08:37:11;55.13;52.29;56.30;;
48148;Laerm;29352;48.708;9.290;2023-12-29T08:39:36;55.14;54.11;56.33;;
48148;Laerm;29352;48.708;9.290;2023-12-29T08:42:02;54.99;53.19;56.07;;
48148;Laerm;29352;48.708;9.290;2023-12-29T08:44:27;54.86;52.98;56.08;;
48148;Laerm;29352;48.708;9.290;2023-12-29T08:46:53;54.86;52.22;55.91;;
48148;Laerm;29352;48.708;9.290;2023-12-29T08:49:19;54.47;49.21;55.89;;
48148;Laerm;29352;48.708;9.290;2023-12-29T08:51:45;54.01;44.31;55.60;;
48148;Laerm;29352;48.708;9.290;2023-12-29T08:54:12;53.70;48.81;55.48;;
48148;Laerm;29352;48.708;9.290;2023-12-29T08:56:40;53.59;40.54;55.33;;
48148;Laerm;29352;48.708;9.290;2023-12-29T08:59:06;53.93;40.89;55.45;;
48148;Laerm;29352;48.708;9.290;2023-12-29T09:01:32;54.34;51.53;55.57;;
48148;Laerm;29352;48.708;9.290;2023-12-29T09:03:58;54.31;47.88;55.83;;
48148;Laerm;29352;48.708;9.290;2023-12-29T09:06:24;54.37;51.46;55.51;;
48148;Laerm;29352;48.708;9.290;2023-12-29T09:08:49;54.31;52.53;55.69;;
48148;Laerm;29352;48.708;9.290;2023-12-29T09:11:15;54.57;52.98;55.77;;
48148;Laerm;29352;48.708;9.290;2023-12-29T09:13:40;54.47;52.59;55.73;;
48148;Laerm;29352;48.708;9.290;2023-12-29T09:16:06;54.68;53.04;55.75;;
48148;Laerm;29352;48.708;9.290;2023-12-29T09:18:31;54.50;47.52;55.94;;
48148;Laerm;29352;48.708;9.290;2023-12-29T09:20:57;54.75;50.43;56.05;;
48148;Laerm;29352;48.708;9.290;2023-12-29T09:23:22;54.79;52.47;56.02;;
48148;Laerm;29352;48.708;9.290;2023-12-29T09:25:49;54.75;51.22;56.05;;
48148;Laerm;29352;48.708;9.290;2023-12-29T09:28:16;54.54;48.52;55.94;;
48148;Laerm;29352;48.708;9.290;2023-12-29T09:30:42;54.60;50.03;55.89;;
48148;Laerm;29352;48.708;9.290;2023-12-29T09:33:07;54.69;51.26;55.89;;
48148;Laerm;29352;48.708;9.290;2023-12-29T09:35:35;54.60;51.22;55.80;;
48148;Laerm;29352;48.708;9.290;2023-12-29T09:38:01;54.47;47.32;55.91;;
48148;Laerm;29352;48.708;9.290;2023-12-29T09:40:27;54.02;48.81;55.70;;
48148;Laerm;29352;48.708;9.290;2023-12-29T09:42:53;54.29;49.92;56.07;;
48148;Laerm;29352;48.708;9.290;2023-12-29T09:45:24;54.23;52.24;55.63;;
48148;Laerm;29352;48.708;9.290;2023-12-29T09:47:51;54.70;52.76;55.91;;
48148;Laerm;29352;48.708;9.290;2023-12-29T09:50:21;54.83;53.63;55.99;;
48148;Laerm;29352;48.708;9.290;2023-12-29T09:52:52;54.67;46.45;56.15;;
48148;Laerm;29352;48.708;9.290;2023-12-29T09:55:20;54.39;49.92;55.83;;
48148;Laerm;29352;48.708;9.290;2023-12-29T09:57:47;54.65;51.88;55.99;;
48148;Laerm;29352;48.708;9.290;2023-12-29T10:00:18;54.85;53.68;55.91;;
48148;Laerm;29352;48.708;9.290;2023-12-29T10:02:51;54.74;51.82;56.02;;
48148;Laerm;29352;48.708;9.290;2023-12-29T10:05:20;54.61;48.95;55.83;;
48148;Laerm;29352;48.708;9.290;2023-12-29T10:07:47;54.73;51.46;56.18;;
48148;Laerm;29352;48.708;9.290;2023-12-29T10:10:16;54.89;53.19;55.99;;
48148;Laerm;29352;48.708;9.290;2023-12-29T10:12:44;54.86;52.29;56.28;;
48148;Laerm;29352;48.708;9.290;2023-12-29T10:15:47;54.86;52.65;56.07;;
48148;Laerm;29352;48.708;9.290;2023-12-29T10:18:45;54.82;53.44;55.94;;
48148;Laerm;29352;48.708;9.290;2023-12-29T10:21:35;54.80;50.80;55.86;;
48148;Laerm;29352;48.708;9.290;2023-12-29T10:24:12;54.61;51.61;56.71;;
48148;Laerm;29352;48.708;9.290;2023-12-29T10:26:42;54.68;52.65;57.93;;
48148;Laerm;29352;48.708;9.290;2023-12-29T10:29:10;54.52;51.88;56.48;;
48148;Laerm;29352;48.708;9.290;2023-12-29T10:31:36;54.04;48.21;55.48;;
48148;Laerm;29352;48.708;9.290;2023-12-29T10:34:20;52.62;15.00;55.04;;
48148;Laerm;29352;48.708;9.290;2023-12-29T10:36:49;51.24;15.00;54.87;;
48148;Laerm;29352;48.708;9.290;2023-12-29T10:39:15;53.15;40.89;55.14;;
48148;Laerm;29352;48.708;9.290;2023-12-29T10:41:41;52.55;15.00;54.69;;
48148;Laerm;29352;48.708;9.290;2023-12-29T10:44:07;53.54;47.12;54.97;;
48148;Laerm;29352;48.708;9.290;2023-12-29T10:46:33;52.29;15.00;55.04;;
48148;Laerm;29352;48.708;9.290;2023-12-29T10:49:08;52.23;15.00;55.14;;
48148;Laerm;29352;48.708;9.290;2023-12-29T10:51:35;52.36;33.55;54.83;;
48148;Laerm;29352;48.708;9.290;2023-12-29T10:54:03;52.36;33.55;54.83;;
48148;Laerm;29352;48.708;9.290;2023-12-29T10:56:30;52.62;38.67;54.51;;
48148;Laerm;29352;48.708;9.290;2023-12-29T10:59:01;52.24;15.00;56.40;;
48148;Laerm;29352;48.708;9.290;2023-12-29T11:01:36;51.98;45.04;54.35;;
48148;Laerm;29352;48.708;9.290;2023-12-29T11:04:06;49.98;15.00;54.47;;
48148;Laerm;29352;48.708;9.290;2023-12-29T11:06:44;49.47;15.00;54.19;;
48148;Laerm;29352;48.708;9.290;2023-12-29T11:09:12;46.18;15.00;53.94;;
48148;Laerm;29352;48.708;9.290;2023-12-29T11:11:38;29.28;15.00;47.52;;
48148;Laerm;29352;48.708;9.290;2023-12-29T11:14:04;53.18;15.00;55.91;;
48148;Laerm;29352;48.708;9.290;2023-12-29T11:16:31;53.31;46.45;55.17;;
48148;Laerm;29352;48.708;9.290;2023-12-29T11:18:58;53.34;45.04;54.69;;
48148;Laerm;29352;48.708;9.290;2023-12-29T11:21:27;53.23;48.21;56.97;;
48148;Laerm;29352;48.708;9.290;2023-12-29T11:23:55;53.16;50.89;54.62;;
48148;Laerm;29352;48.708;9.290;2023-12-29T11:26:21;53.16;38.67;54.47;;
48148;Laerm;29352;48.708;9.290;2023-12-29T11:28:48;52.87;45.86;54.69;;
48148;Laerm;29352;48.708;9.290;2023-12-29T11:31:18;52.49;45.66;56.10;;
48148;Laerm;29352;48.708;9.290;2023-12-29T11:33:59;51.60;45.66;54.54;;
48148;Laerm;29352;48.708;9.290;2023-12-29T11:36:36;51.67;46.45;57.90;;
48148;Laerm;29352;48.708;9.290;2023-12-29T11:39:28;52.56;48.37;58.12;;
48148;Laerm;29352;48.708;9.290;2023-12-29T11:42:29;51.82;33.90;58.26;;
48148;Laerm;29352;48.708;9.290;2023-12-29T11:44:56;50.07;38.67;54.83;;
48148;Laerm;29352;48.708;9.290;2023-12-29T11:47:39;49.37;43.90;55.20;;
48148;Laerm;29352;48.708;9.290;2023-12-29T11:50:06;49.23;43.44;56.59;;
48148;Laerm;29352;48.708;9.290;2023-12-29T11:52:36;49.46;43.44;54.43;;
48148;Laerm;29352;48.708;9.290;2023-12-29T11:55:14;49.89;43.44;53.77;;
48148;Laerm;29352;48.708;9.290;2023-12-29T11:57:40;49.37;42.93;57.22;;
48148;Laerm;29352;48.708;9.290;2023-12-29T12:00:08;49.37;15.00;54.87;;
48148;Laerm;29352;48.708;9.290;2023-12-29T12:02:36;47.85;15.00;51.75;;
48148;Laerm;29352;48.708;9.290;2023-12-29T12:05:01;48.25;36.91;54.62;;
48148;Laerm;29352;48.708;9.290;2023-12-29T12:12:49;47.99;15.00;54.94;;
48148;Laerm;29352;48.708;9.290;2023-12-29T12:17:53;50.39;44.31;59.46;;
48148;Laerm;29352;48.708;9.290;2023-12-29T12:20:19;50.73;43.90;56.18;;
48148;Laerm;29352;48.708;9.290;2023-12-29T12:22:59;49.97;44.31;54.80;;
48148;Laerm;29352;48.708;9.290;2023-12-29T12:25:27;50.55;45.36;55.86;;
48148;Laerm;29352;48.708;9.290;2023-12-29T12:27:54;52.57;48.21;54.39;;
48148;Laerm;29352;48.708;9.290;2023-12-29T12:30:21;52.65;50.03;55.48;;
48148;Laerm;29352;48.708;9.290;2023-12-29T12:32:57;52.03;45.04;53.99;;
48148;Laerm;29352;48.708;9.290;2023-12-29T12:35:24;50.93;42.35;54.11;;
48148;Laerm;29352;48.708;9.290;2023-12-29T12:38:16;51.17;15.00;54.19;;
48148;Laerm;29352;48.708;9.290;2023-12-29T12:40:47;46.55;15.00;53.04;;
48148;Laerm;29352;48.708;9.290;2023-12-29T12:43:15;44.36;15.00;51.30;;
48148;Laerm;29352;48.708;9.290;2023-12-29T12:45:48;43.77;15.00;49.92;;
48148;Laerm;29352;48.708;9.290;2023-12-29T12:48:32;48.16;15.00;62.03;;
48148;Laerm;29352;48.708;9.290;2023-12-29T12:51:02;46.97;15.00;56.30;;
48148;Laerm;29352;48.708;9.290;2023-12-29T12:53:29;47.53;15.00;54.03;;
48148;Laerm;29352;48.708;9.290;2023-12-29T12:55:55;44.13;15.00;51.22;;
48148;Laerm;29352;48.708;9.290;2023-12-29T12:58:21;37.71;15.00;48.95;;
48148;Laerm;29352;48.708;9.290;2023-12-29T13:00:48;39.18;15.00;48.81;;
48148;Laerm;29352;48.708;9.290;2023-12-29T13:03:15;35.83;15.00;48.95;;
48148;Laerm;29352;48.708;9.290;2023-12-29T13:05:43;36.05;15.00;48.05;;
48148;Laerm;29352;48.708;9.290;2023-12-29T13:08:11;33.59;15.00;47.52;;
48148;Laerm;29352;48.708;9.290;2023-12-29T13:10:42;36.73;15.00;47.88;;
48148;Laerm;29352;48.708;9.290;2023-12-29T13:13:09;41.76;15.00;50.53;;
48148;Laerm;29352;48.708;9.290;2023-12-29T13:15:50;35.31;15.00;48.52;;
48148;Laerm;29352;48.708;9.290;2023-12-29T13:18:17;40.26;15.00;48.81;;
48148;Laerm;29352;48.708;9.290;2023-12-29T13:20:47;42.92;15.00;49.81;;
48148;Laerm;29352;48.708;9.290;2023-12-29T13:23:14;43.19;15.00;49.92;;
48148;Laerm;29352;48.708;9.290;2023-12-29T13:25:43;42.39;15.00;49.92;;
48148;Laerm;29352;48.708;9.290;2023-12-29T13:28:10;43.92;15.00;51.30;;
48148;Laerm;29352;48.708;9.290;2023-12-29T13:30:38;41.70;15.00;49.46;;
48148;Laerm;29352;48.708;9.290;2023-12-29T13:33:23;43.04;15.00;51.61;;
48148;Laerm;29352;48.708;9.290;2023-12-29T13:36:12;41.11;15.00;48.95;;
48148;Laerm;29352;48.708;9.290;2023-12-29T13:38:59;42.21;15.00;51.22;;
48148;Laerm;29352;48.708;9.290;2023-12-29T13:41:34;45.20;15.00;50.33;;
48148;Laerm;29352;48.708;9.290;2023-12-29T13:44:02;45.34;15.00;50.33;;
48148;Laerm;29352;48.708;9.290;2023-12-29T13:46:29;46.22;15.00;50.80;;
48148;Laerm;29352;48.708;9.290;2023-12-29T13:48:56;48.03;15.00;52.29;;
48148;Laerm;29352;48.708;9.290;2023-12-29T13:51:27;42.38;15.00;50.23;;
48148;Laerm;29352;48.708;9.290;2023-12-29T13:54:02;42.00;15.00;49.23;;
48148;Laerm;29352;48.708;9.290;2023-12-29T13:56:29;43.10;15.00;49.21;;